Time;durP1;ratioP1;P1;durP2;ratioP2;P2;SDS_P1;SDS_P2;PMS_P1;PMS_P2;Temp;Humidity;BMP_temperature;BMP_pressure;BME280_temperature;BME280_humidity;BME280_pressure;Samples;Min_cycle;Max_cycle;Signal;HPM_P1;HPM_P2
2022/03/12 00:01:53;;;;;;;;;;;-0.40;66.80;;;;;;4971375;28;86921;-49
2022/03/12 00:04:18;;;;;;;;;;;-0.40;66.90;;;;;;4968991;28;87894;-50
2022/03/12 00:06:45;;;;;;;;;;;-0.40;66.90;;;;;;4969472;28;89074;-48
2022/03/12 00:09:11;;;;;;;;;;;-0.50;67.00;;;;;;4969237;28;88576;-48
2022/03/12 00:11:49;;;;;;;;;;;-0.40;66.90;;;;;;4969385;28;86839;-49
2022/03/12 00:14:15;;;;;;;;;;;-0.40;67.10;;;;;;4969514;28;88156;-48
2022/03/12 00:16:41;;;;;;;;;;;-0.40;66.90;;;;;;4968945;28;88596;-49
2022/03/12 00:19:09;;;;;;;;;;;-0.50;67.00;;;;;;4969359;28;87060;-49
2022/03/12 00:21:35;;;;;;;;;;;-0.40;67.00;;;;;;4968807;28;86169;-49
2022/03/12 00:24:02;;;;;;;;;;;-0.40;66.90;;;;;;4971602;28;88713;-49
2022/03/12 00:26:29;;;;;;;;;;;-0.40;67.00;;;;;;4969277;28;87925;-49
2022/03/12 00:28:55;;;;;;;;;;;-0.40;66.90;;;;;;4967625;28;89260;-48
2022/03/12 00:31:22;;;;;;;;;;;-0.50;66.90;;;;;;4969089;28;86827;-49
2022/03/12 00:33:47;;;;;;;;;;;-0.40;66.90;;;;;;4969214;28;88082;-50
2022/03/12 00:36:14;;;;;;;;;;;-0.40;66.90;;;;;;4968980;28;87636;-53
2022/03/12 00:38:40;;;;;;;;;;;-0.50;66.90;;;;;;4969084;28;86988;-52
2022/03/12 00:41:07;;;;;;;;;;;-0.50;66.90;;;;;;4969059;28;87031;-49
2022/03/12 00:43:33;;;;;;;;;;;-0.50;67.10;;;;;;4968717;28;87620;-49
2022/03/12 00:45:59;;;;;;;;;;;-0.50;67.10;;;;;;4972382;28;86185;-52
2022/03/12 00:48:25;;;;;;;;;;;-0.50;67.00;;;;;;4968446;28;86829;-49
2022/03/12 00:50:51;;;;;;;;;;;-0.50;67.00;;;;;;4969138;28;86906;-49
2022/03/12 00:53:16;;;;;;;;;;;-0.50;67.10;;;;;;4968328;28;88185;-49
2022/03/12 00:55:43;;;;;;;;;;;-0.50;67.10;;;;;;4968503;28;87601;-48
2022/03/12 00:58:09;;;;;;;;;;;-0.50;67.00;;;;;;4968903;28;86850;-50
2022/03/12 01:00:34;;;;;;;;;;;-0.50;67.00;;;;;;4968759;28;87030;-49
2022/03/12 01:03:01;;;;;;;;;;;-0.50;67.10;;;;;;4968407;28;88700;-49
2022/03/12 01:05:51;;;;;;;;;;;-0.50;67.00;;;;;;4971628;28;86834;-52
2022/03/12 01:08:18;;;;;;;;;;;-0.50;67.00;;;;;;4968618;28;87427;-49
2022/03/12 01:10:45;;;;;;;;;;;-0.50;67.10;;;;;;4969097;28;86154;-50
2022/03/12 01:13:11;;;;;;;;;;;-0.50;67.10;;;;;;4968579;28;86866;-48
2022/03/12 01:15:37;;;;;;;;;;;-0.60;67.10;;;;;;4968409;28;87432;-49
2022/03/12 01:18:03;;;;;;;;;;;-0.60;67.10;;;;;;4968201;28;88060;-52
2022/03/12 01:20:29;;;;;;;;;;;-0.50;67.10;;;;;;4968419;28;88903;-48
2022/03/12 01:22:55;;;;;;;;;;;-0.60;67.10;;;;;;4967974;28;88399;-48
2022/03/12 01:25:20;;;;;;;;;;;-0.50;67.10;;;;;;4968449;28;86878;-49
2022/03/12 01:27:46;;;;;;;;;;;-0.60;67.10;;;;;;4970855;28;86894;-49
2022/03/12 01:30:12;;;;;;;;;;;-0.60;67.10;;;;;;4968281;28;86886;-49
2022/03/12 01:32:38;;;;;;;;;;;-0.60;67.10;;;;;;4968240;28;87843;-52
2022/03/12 01:35:04;;;;;;;;;;;-0.60;67.00;;;;;;4968630;28;86136;-48
2022/03/12 01:37:31;;;;;;;;;;;-0.60;67.10;;;;;;4968216;28;86822;-48
2022/03/12 01:39:57;;;;;;;;;;;-0.60;67.10;;;;;;4968527;28;86825;-48
2022/03/12 01:42:27;;;;;;;;;;;-0.60;67.10;;;;;;4967330;28;88445;-49
2022/03/12 01:44:53;;;;;;;;;;;-0.60;67.10;;;;;;4968015;28;86826;-49
2022/03/12 01:47:20;;;;;;;;;;;-0.60;67.10;;;;;;4967912;28;87385;-49
2022/03/12 01:49:51;;;;;;;;;;;-0.60;67.10;;;;;;4970469;28;88509;-50
2022/03/12 01:52:17;;;;;;;;;;;-0.60;67.10;;;;;;4967370;28;86977;-48
2022/03/12 01:54:43;;;;;;;;;;;-0.60;67.10;;;;;;4967892;28;87380;-49
2022/03/12 01:57:09;;;;;;;;;;;-0.60;67.00;;;;;;4967820;28;86759;-48
2022/03/12 01:59:37;;;;;;;;;;;-0.60;67.10;;;;;;4968319;28;87063;-48
2022/03/12 02:02:06;;;;;;;;;;;-0.60;67.20;;;;;;4967486;28;87765;-49
2022/03/12 02:04:31;;;;;;;;;;;-0.60;67.10;;;;;;4968095;28;86938;-49
2022/03/12 02:06:59;;;;;;;;;;;-0.60;67.20;;;;;;4967150;28;87772;-49
2022/03/12 02:09:25;;;;;;;;;;;-0.60;67.20;;;;;;4967337;28;87491;-48
2022/03/12 02:11:52;;;;;;;;;;;-0.60;67.20;;;;;;4970642;28;86931;-48
2022/03/12 02:14:19;;;;;;;;;;;-0.70;67.30;;;;;;4967298;28;88552;-48
2022/03/12 02:16:48;;;;;;;;;;;-0.70;67.20;;;;;;4967837;28;86897;-48
2022/03/12 02:19:13;;;;;;;;;;;-0.70;67.30;;;;;;4966915;28;87053;-49
2022/03/12 02:21:53;;;;;;;;;;;-0.60;67.30;;;;;;4967065;28;87819;-48
2022/03/12 02:24:20;;;;;;;;;;;-0.70;67.30;;;;;;4967978;28;86024;-48
2022/03/12 02:26:46;;;;;;;;;;;-0.70;67.20;;;;;;4967498;28;87285;-48
2022/03/12 02:29:16;;;;;;;;;;;-0.70;67.20;;;;;;4967069;28;88470;-49
2022/03/12 02:31:45;;;;;;;;;;;-0.70;67.30;;;;;;4966666;28;87931;-48
2022/03/12 02:34:11;;;;;;;;;;;-0.70;67.30;;;;;;4969841;28;88790;-48
2022/03/12 02:36:38;;;;;;;;;;;-0.70;67.40;;;;;;4967243;28;86874;-48
2022/03/12 02:39:05;;;;;;;;;;;-0.70;67.40;;;;;;4967660;28;86825;-49
2022/03/12 02:41:31;;;;;;;;;;;-0.70;67.40;;;;;;4967183;28;87217;-48
2022/03/12 02:43:58;;;;;;;;;;;-0.70;67.30;;;;;;4967262;28;86895;-48
2022/03/12 02:46:28;;;;;;;;;;;-0.70;67.40;;;;;;4966990;28;87670;-49
2022/03/12 02:48:53;;;;;;;;;;;-0.70;67.40;;;;;;4966618;28;87953;-50
2022/03/12 02:51:22;;;;;;;;;;;-0.70;67.40;;;;;;4967170;28;86791;-49
2022/03/12 02:53:50;;;;;;;;;;;-0.70;67.40;;;;;;4969784;28;86844;-49
2022/03/12 02:56:17;;;;;;;;;;;-0.70;67.40;;;;;;4966349;28;87784;-48
2022/03/12 02:58:43;;;;;;;;;;;-0.70;67.30;;;;;;4967174;28;87670;-49
2022/03/12 03:01:14;;;;;;;;;;;-0.80;67.40;;;;;;4966545;28;88710;-51
2022/03/12 03:03:43;;;;;;;;;;;-0.80;67.40;;;;;;4965840;28;86941;-49
2022/03/12 03:06:09;;;;;;;;;;;-0.80;67.40;;;;;;4966828;28;88181;-50
2022/03/12 03:08:39;;;;;;;;;;;-0.80;67.90;;;;;;4966400;28;88922;-48
2022/03/12 03:11:12;;;;;;;;;;;-0.80;67.30;;;;;;4966932;28;86928;-49
2022/03/12 03:13:41;;;;;;;;;;;-0.80;67.20;;;;;;4967291;28;88038;-48
2022/03/12 03:16:08;;;;;;;;;;;-0.80;67.40;;;;;;4969275;28;88511;-48
2022/03/12 03:18:38;;;;;;;;;;;-0.80;67.20;;;;;;4966679;28;88055;-49
2022/03/12 03:21:07;;;;;;;;;;;-0.90;67.20;;;;;;4965679;28;88742;-49
2022/03/12 03:23:32;;;;;;;;;;;-0.80;67.30;;;;;;4967025;28;86876;-49
2022/03/12 03:26:02;;;;;;;;;;;-0.80;67.30;;;;;;4966674;28;88135;-49
2022/03/12 03:28:28;;;;;;;;;;;-0.90;67.10;;;;;;4966275;28;88050;-48
2022/03/12 03:30:54;;;;;;;;;;;-0.90;67.10;;;;;;4965941;28;86998;-48
2022/03/12 03:33:21;;;;;;;;;;;-0.90;67.20;;;;;;4966634;28;88254;-48
2022/03/12 03:35:47;;;;;;;;;;;-0.90;67.20;;;;;;4966169;28;87640;-49
2022/03/12 03:38:13;;;;;;;;;;;-0.90;67.20;;;;;;4969897;28;86109;-49
2022/03/12 03:40:40;;;;;;;;;;;-0.90;67.00;;;;;;4966170;28;88281;-48
2022/03/12 03:43:09;;;;;;;;;;;-0.90;67.00;;;;;;4966526;28;87076;-48
2022/03/12 03:45:36;;;;;;;;;;;-0.90;67.10;;;;;;4965746;28;87985;-49
2022/03/12 03:48:01;;;;;;;;;;;-0.90;67.00;;;;;;4965925;28;87579;-48
2022/03/12 03:50:27;;;;;;;;;;;-0.90;66.90;;;;;;4966369;28;86699;-49
2022/03/12 03:52:56;;;;;;;;;;;-0.90;67.10;;;;;;4966375;28;87000;-49
2022/03/12 03:55:28;;;;;;;;;;;-0.90;67.10;;;;;;4965841;28;88573;-49
2022/03/12 03:57:54;;;;;;;;;;;-1.00;67.10;;;;;;4966263;28;87019;-49
2022/03/12 04:00:23;;;;;;;;;;;-0.90;67.00;;;;;;4968821;28;87038;-48
2022/03/12 04:03:09;;;;;;;;;;;-0.90;67.00;;;;;;4967041;28;86603;-48
2022/03/12 04:05:35;;;;;;;;;;;-1.00;67.10;;;;;;4966242;28;87571;-52
2022/03/12 04:08:02;;;;;;;;;;;-1.00;67.20;;;;;;4965821;28;87733;-52
2022/03/12 04:10:29;;;;;;;;;;;-1.00;67.20;;;;;;4965647;28;88186;-50
2022/03/12 04:12:55;;;;;;;;;;;-1.00;67.20;;;;;;4965409;28;87925;-49
2022/03/12 04:15:21;;;;;;;;;;;-1.00;67.20;;;;;;4967331;28;87597;-48
2022/03/12 04:17:51;;;;;;;;;;;-1.00;67.10;;;;;;4969448;28;86875;-48
2022/03/12 04:20:18;;;;;;;;;;;-1.00;67.20;;;;;;4969392;28;88214;-48
2022/03/12 04:22:45;;;;;;;;;;;-1.00;67.20;;;;;;4972011;28;87718;-53
2022/03/12 04:25:12;;;;;;;;;;;-0.90;67.20;;;;;;4969367;28;87205;-49
2022/03/12 04:27:38;;;;;;;;;;;-0.90;67.10;;;;;;4969516;28;88129;-49
2022/03/12 04:30:05;;;;;;;;;;;-1.00;67.20;;;;;;4968698;28;86833;-49
2022/03/12 04:32:31;;;;;;;;;;;-1.00;67.20;;;;;;4969226;28;87704;-49
2022/03/12 04:34:57;;;;;;;;;;;-1.00;67.20;;;;;;4968147;28;88565;-48
2022/03/12 04:37:23;;;;;;;;;;;-1.00;67.20;;;;;;4969362;28;86953;-49
2022/03/12 04:39:49;;;;;;;;;;;-1.00;67.40;;;;;;4969182;28;87134;-51
2022/03/12 04:42:21;;;;;;;;;;;-1.00;67.20;;;;;;4968692;28;87446;-49
2022/03/12 04:44:47;;;;;;;;;;;-1.00;67.30;;;;;;4971898;28;86910;-51
2022/03/12 04:47:13;;;;;;;;;;;-1.00;67.20;;;;;;4968133;28;87479;-48
2022/03/12 04:49:39;;;;;;;;;;;-1.00;67.10;;;;;;4969017;28;86880;-48
2022/03/12 04:52:05;;;;;;;;;;;-1.00;67.10;;;;;;4969285;28;88035;-48
2022/03/12 04:54:32;;;;;;;;;;;-1.00;67.10;;;;;;4968550;28;88592;-49
2022/03/12 04:56:58;;;;;;;;;;;-1.00;67.20;;;;;;4968894;28;86941;-48
2022/03/12 04:59:24;;;;;;;;;;;-1.00;67.10;;;;;;4968336;28;87812;-48
2022/03/12 05:01:49;;;;;;;;;;;-1.00;67.20;;;;;;4968674;28;86964;-49
2022/03/12 05:04:15;;;;;;;;;;;-1.10;67.20;;;;;;4971639;28;86979;-48
2022/03/12 05:06:41;;;;;;;;;;;-1.10;67.40;;;;;;4968373;28;88789;-48
2022/03/12 05:09:06;;;;;;;;;;;-1.10;67.50;;;;;;4968714;28;86965;-48
2022/03/12 05:11:33;;;;;;;;;;;-1.10;67.50;;;;;;4968594;28;87047;-49
2022/03/12 05:13:59;;;;;;;;;;;-1.10;67.20;;;;;;4968309;28;87471;-47
2022/03/12 05:16:28;;;;;;;;;;;-1.10;67.20;;;;;;4969072;28;86139;-47
2022/03/12 05:18:58;;;;;;;;;;;-1.10;67.30;;;;;;4968602;28;87171;-50
2022/03/12 05:21:23;;;;;;;;;;;-1.10;67.20;;;;;;4968138;28;88577;-48
2022/03/12 05:23:49;;;;;;;;;;;-1.00;67.10;;;;;;4967842;28;87786;-48
2022/03/12 05:26:15;;;;;;;;;;;-1.10;67.10;;;;;;4970340;28;87632;-49
2022/03/12 05:28:41;;;;;;;;;;;-1.10;67.20;;;;;;4968390;28;86857;-48
2022/03/12 05:31:08;;;;;;;;;;;-1.10;67.30;;;;;;4968218;28;88056;-48
2022/03/12 05:33:34;;;;;;;;;;;-1.10;67.30;;;;;;4967937;28;87666;-48
2022/03/12 05:36:00;;;;;;;;;;;-1.10;67.20;;;;;;4968283;28;86926;-49
2022/03/12 05:38:30;;;;;;;;;;;-1.10;67.20;;;;;;4968592;28;86853;-48
2022/03/12 05:40:55;;;;;;;;;;;-1.10;67.20;;;;;;4968422;28;87969;-48
2022/03/12 05:43:21;;;;;;;;;;;-1.10;67.00;;;;;;4968103;28;86896;-49
2022/03/12 05:45:48;;;;;;;;;;;-1.10;67.10;;;;;;4967152;28;86987;-48
2022/03/12 05:48:14;;;;;;;;;;;-1.10;67.10;;;;;;4969527;28;88634;-49
2022/03/12 05:50:41;;;;;;;;;;;-1.10;67.00;;;;;;4968031;28;87893;-48
2022/03/12 05:53:09;;;;;;;;;;;-1.10;67.70;;;;;;4967534;28;88472;-48
2022/03/12 05:55:41;;;;;;;;;;;-1.10;67.10;;;;;;4967930;28;87063;-48
2022/03/12 05:58:08;;;;;;;;;;;-1.10;67.10;;;;;;4967896;28;87715;-48
2022/03/12 06:00:34;;;;;;;;;;;-1.10;67.10;;;;;;4967455;28;89013;-48
2022/03/12 06:03:01;;;;;;;;;;;-1.10;67.00;;;;;;4967948;28;86861;-48
2022/03/12 06:05:27;;;;;;;;;;;-1.10;67.10;;;;;;4968215;28;87109;-48
2022/03/12 06:07:53;;;;;;;;;;;-1.10;66.90;;;;;;4966881;28;87800;-48
2022/03/12 06:10:21;;;;;;;;;;;-1.10;67.00;;;;;;4970597;28;86868;-49
2022/03/12 06:12:48;;;;;;;;;;;-1.10;66.80;;;;;;4966607;28;89539;-48
2022/03/12 06:15:19;;;;;;;;;;;-1.10;66.90;;;;;;4967771;28;86887;-50
2022/03/12 06:17:45;;;;;;;;;;;-1.10;67.00;;;;;;4967674;28;87955;-48
2022/03/12 06:20:12;;;;;;;;;;;-1.10;67.00;;;;;;4967243;28;88284;-48
2022/03/12 06:22:38;;;;;;;;;;;-1.10;67.10;;;;;;4967646;28;87066;-48
2022/03/12 06:25:08;;;;;;;;;;;-1.20;67.20;;;;;;4967573;28;87936;-48
2022/03/12 06:27:34;;;;;;;;;;;-1.20;67.20;;;;;;4967108;28;88572;-48
2022/03/12 06:30:01;;;;;;;;;;;-1.20;67.00;;;;;;4967891;28;86161;-48
2022/03/12 06:32:29;;;;;;;;;;;-1.20;66.90;;;;;;4969816;28;87138;-49
2022/03/12 06:34:55;;;;;;;;;;;-1.20;67.00;;;;;;4967357;28;86891;-47
2022/03/12 06:37:21;;;;;;;;;;;-1.20;66.90;;;;;;4966701;28;88073;-48
2022/03/12 06:39:47;;;;;;;;;;;-1.20;66.90;;;;;;4966894;28;88477;-47
2022/03/12 06:42:12;;;;;;;;;;;-1.20;67.00;;;;;;4967398;28;86900;-49
2022/03/12 06:44:38;;;;;;;;;;;-1.10;66.70;;;;;;4966882;28;87170;-49
2022/03/12 06:47:08;;;;;;;;;;;-1.20;66.80;;;;;;4966484;28;88399;-50
2022/03/12 06:49:35;;;;;;;;;;;-1.20;66.80;;;;;;4967176;28;87685;-51
2022/03/12 06:52:01;;;;;;;;;;;-1.10;66.70;;;;;;4967146;28;86926;-48
2022/03/12 06:54:27;;;;;;;;;;;-1.20;66.70;;;;;;4970165;28;87879;-49
2022/03/12 06:56:53;;;;;;;;;;;-1.10;66.60;;;;;;4967101;28;87173;-48
2022/03/12 06:59:19;;;;;;;;;;;-1.10;66.50;;;;;;4966674;28;87677;-47
2022/03/12 07:01:44;;;;;;;;;;;-1.10;66.40;;;;;;4966390;28;87787;-47
2022/03/12 07:04:10;;;;;;;;;;;-1.10;66.50;;;;;;4967259;28;87592;-47
2022/03/12 07:06:37;;;;;;;;;;;-1.10;66.50;;;;;;4965652;28;87672;-47
2022/03/12 07:09:03;;;;;;;;;;;-1.10;66.40;;;;;;4966898;28;86901;-48
2022/03/12 07:11:32;;;;;;;;;;;-1.10;66.50;;;;;;4966856;28;88053;-47
2022/03/12 07:13:58;;;;;;;;;;;-1.10;66.40;;;;;;4969159;28;88470;-47
2022/03/12 07:16:24;;;;;;;;;;;-1.10;66.30;;;;;;4966187;28;87087;-47
2022/03/12 07:18:50;;;;;;;;;;;-1.10;66.40;;;;;;4966762;28;87930;-48
2022/03/12 07:21:15;;;;;;;;;;;-1.10;66.30;;;;;;4966985;28;87010;-48
2022/03/12 07:23:41;;;;;;;;;;;-1.10;66.20;;;;;;4966680;28;87813;-48
2022/03/12 07:26:07;;;;;;;;;;;-1.10;65.90;;;;;;4965463;28;89472;-49
2022/03/12 07:28:33;;;;;;;;;;;-1.10;65.90;;;;;;4966924;28;86918;-48
2022/03/12 07:30:59;;;;;;;;;;;-1.10;65.90;;;;;;4966947;28;87288;-47
2022/03/12 07:33:25;;;;;;;;;;;-1.20;65.90;;;;;;4966095;28;87566;-47
2022/03/12 07:35:51;;;;;;;;;;;-1.10;65.90;;;;;;4969396;28;87194;-49
2022/03/12 07:38:16;;;;;;;;;;;-1.20;65.80;;;;;;4966080;28;88749;-47
2022/03/12 07:40:42;;;;;;;;;;;-1.20;65.80;;;;;;4966256;28;86793;-48
2022/03/12 07:43:09;;;;;;;;;;;-1.10;65.60;;;;;;4966373;28;88077;-48
2022/03/12 07:45:35;;;;;;;;;;;-1.20;65.70;;;;;;4965917;28;86871;-47
2022/03/12 07:48:00;;;;;;;;;;;-1.20;65.70;;;;;;4965487;28;87077;-51
2022/03/12 07:50:26;;;;;;;;;;;-1.20;65.70;;;;;;4968235;28;87743;-47
2022/03/12 07:52:52;;;;;;;;;;;-1.20;65.80;;;;;;4969316;28;88598;-49
2022/03/12 07:55:18;;;;;;;;;;;-1.20;65.80;;;;;;4969684;28;86850;-48
2022/03/12 07:57:44;;;;;;;;;;;-1.20;66.00;;;;;;4971668;28;88063;-47
2022/03/12 08:00:11;;;;;;;;;;;-1.30;65.90;;;;;;4969230;28;86877;-48
2022/03/12 08:02:36;;;;;;;;;;;-1.30;65.90;;;;;;4969232;28;87017;-49
2022/03/12 08:05:03;;;;;;;;;;;-1.20;65.80;;;;;;4968739;28;87577;-49
2022/03/12 08:07:29;;;;;;;;;;;-1.20;65.60;;;;;;4969899;28;86429;-48
2022/03/12 08:09:59;;;;;;;;;;;-1.20;65.50;;;;;;4969348;28;87206;-48
2022/03/12 08:12:31;;;;;;;;;;;-1.20;65.30;;;;;;4969016;28;86923;-49
2022/03/12 08:14:57;;;;;;;;;;;-1.20;65.20;;;;;;4968534;28;87940;-48
2022/03/12 08:17:24;;;;;;;;;;;-1.20;65.10;;;;;;4969071;28;88075;-48
2022/03/12 08:19:50;;;;;;;;;;;-1.20;65.10;;;;;;4971306;28;88616;-48
2022/03/12 08:22:16;;;;;;;;;;;-1.20;64.80;;;;;;4968937;28;87120;-48
2022/03/12 08:24:41;;;;;;;;;;;-1.10;65.00;;;;;;4968757;28;88723;-49
2022/03/12 08:27:08;;;;;;;;;;;-1.20;65.00;;;;;;4969152;28;86824;-49
2022/03/12 08:29:33;;;;;;;;;;;-1.20;65.10;;;;;;4968847;28;87226;-48
2022/03/12 08:31:59;;;;;;;;;;;-1.20;65.10;;;;;;4968803;28;87827;-48
2022/03/12 08:34:26;;;;;;;;;;;-1.20;65.20;;;;;;4968714;28;86868;-48
2022/03/12 08:36:52;;;;;;;;;;;-1.20;64.90;;;;;;4968811;28;86984;-47
2022/03/12 08:39:17;;;;;;;;;;;-1.10;64.90;;;;;;4967598;28;88685;-48
2022/03/12 08:41:43;;;;;;;;;;;-1.20;64.90;;;;;;4971561;28;86817;-48
2022/03/12 08:44:09;;;;;;;;;;;-1.20;64.80;;;;;;4968741;28;87975;-47
2022/03/12 08:46:35;;;;;;;;;;;-1.20;64.60;;;;;;4968561;28;86878;-47
2022/03/12 08:49:02;;;;;;;;;;;-1.10;64.80;;;;;;4968120;28;88004;-47
2022/03/12 08:51:27;;;;;;;;;;;-1.10;64.80;;;;;;4968459;28;86995;-48
2022/03/12 08:53:53;;;;;;;;;;;-1.20;64.70;;;;;;4968318;28;86873;-47
2022/03/12 08:56:19;;;;;;;;;;;-1.20;64.80;;;;;;4968756;28;87981;-48
2022/03/12 08:58:44;;;;;;;;;;;-1.20;64.80;;;;;;4968071;28;87666;-47
2022/03/12 09:01:10;;;;;;;;;;;-1.20;64.80;;;;;;4967192;28;87125;-48
2022/03/12 09:03:36;;;;;;;;;;;-1.10;64.60;;;;;;4970176;28;87896;-50
2022/03/12 09:06:03;;;;;;;;;;;-1.10;64.80;;;;;;4968215;28;86931;-49
2022/03/12 09:08:29;;;;;;;;;;;-1.10;64.60;;;;;;4968302;28;88080;-48
2022/03/12 09:10:55;;;;;;;;;;;-1.10;64.80;;;;;;4967642;28;88763;-47
2022/03/12 09:13:21;;;;;;;;;;;-1.10;64.80;;;;;;4968023;28;86942;-48
2022/03/12 09:15:47;;;;;;;;;;;-1.10;64.90;;;;;;4968319;28;86955;-49
2022/03/12 09:18:13;;;;;;;;;;;-1.20;64.80;;;;;;4967961;28;87674;-48
2022/03/12 09:20:47;;;;;;;;;;;-1.10;64.60;;;;;;4968700;28;86727;-48
2022/03/12 09:23:16;;;;;;;;;;;-1.10;64.70;;;;;;4970452;28;87177;-48
2022/03/12 09:25:42;;;;;;;;;;;-1.20;64.70;;;;;;4967914;28;86804;-49
2022/03/12 09:28:08;;;;;;;;;;;-1.20;64.90;;;;;;4966675;28;87806;-49
2022/03/12 09:30:34;;;;;;;;;;;-1.30;65.10;;;;;;4967678;28;87763;-47
2022/03/12 09:33:00;;;;;;;;;;;-1.30;65.20;;;;;;4967773;28;87000;-49
2022/03/12 09:35:26;;;;;;;;;;;-1.30;65.00;;;;;;4968102;28;87826;-48
2022/03/12 09:37:52;;;;;;;;;;;-1.20;64.90;;;;;;4967255;28;88967;-48
2022/03/12 09:40:18;;;;;;;;;;;-1.20;65.10;;;;;;4967632;28;86970;-48
2022/03/12 09:42:44;;;;;;;;;;;-1.20;65.20;;;;;;4967717;28;87951;-48
2022/03/12 09:45:11;;;;;;;;;;;-1.10;64.80;;;;;;4970529;28;87564;-49
2022/03/12 09:47:37;;;;;;;;;;;-1.10;65.10;;;;;;4967643;28;86855;-48
2022/03/12 09:50:03;;;;;;;;;;;-1.10;65.00;;;;;;4967261;28;88578;-48
2022/03/12 09:52:29;;;;;;;;;;;-1.10;64.80;;;;;;4966993;28;87841;-48
2022/03/12 09:54:54;;;;;;;;;;;-1.10;64.90;;;;;;4967402;28;86854;-49
2022/03/12 09:57:20;;;;;;;;;;;-1.10;64.50;;;;;;4967101;28;88484;-49
2022/03/12 09:59:47;;;;;;;;;;;-1.10;64.50;;;;;;4967381;28;86934;-48
2022/03/12 10:02:13;;;;;;;;;;;-1.10;64.20;;;;;;4967526;28;87143;-48
2022/03/12 10:04:39;;;;;;;;;;;-1.10;64.00;;;;;;4967102;28;88553;-50
2022/03/12 10:07:06;;;;;;;;;;;-1.10;64.10;;;;;;4970374;28;86923;-50
2022/03/12 10:09:32;;;;;;;;;;;-1.10;64.30;;;;;;4967690;28;86777;-49
2022/03/12 10:11:58;;;;;;;;;;;-1.00;64.30;;;;;;4966773;28;86879;-51
2022/03/12 10:14:24;;;;;;;;;;;-1.00;64.20;;;;;;4967135;28;87235;-49
2022/03/12 10:16:50;;;;;;;;;;;-1.00;64.50;;;;;;4966191;28;89445;-49
2022/03/12 10:19:15;;;;;;;;;;;-1.00;64.50;;;;;;4967343;28;86899;-49
2022/03/12 10:21:45;;;;;;;;;;;-1.00;64.10;;;;;;4967090;28;87068;-51
2022/03/12 10:24:14;;;;;;;;;;;-1.00;64.30;;;;;;4966858;28;87592;-49
2022/03/12 10:26:40;;;;;;;;;;;-1.00;64.50;;;;;;4966948;28;86894;-48
2022/03/12 10:29:06;;;;;;;;;;;-1.00;64.20;;;;;;4969391;28;87982;-50
2022/03/12 10:31:32;;;;;;;;;;;-1.00;64.40;;;;;;4967049;28;86872;-51
2022/03/12 10:34:24;;;;;;;;;;;-1.00;64.50;;;;;;4967653;28;87134;-48
2022/03/12 10:36:54;;;;;;;;;;;-1.00;64.80;;;;;;4955201;28;86924;-49
2022/03/12 10:39:31;;;;;;;;;;;-1.00;64.50;;;;;;4966813;28;86982;-49
2022/03/12 10:42:04;;;;;;;;;;;-0.90;64.60;;;;;;4965608;28;87914;-49
2022/03/12 10:44:37;;;;;;;;;;;-0.90;64.60;;;;;;4966748;28;87426;-48
2022/03/12 10:47:03;;;;;;;;;;;-0.90;64.50;;;;;;4966284;28;86930;-48
2022/03/12 10:49:28;;;;;;;;;;;-1.00;64.70;;;;;;4966676;28;86997;-50
2022/03/12 10:51:58;;;;;;;;;;;-1.00;64.70;;;;;;4969211;28;88853;-51
2022/03/12 10:54:24;;;;;;;;;;;-1.00;64.20;;;;;;4966483;28;87188;-49
2022/03/12 10:56:51;;;;;;;;;;;-0.90;65.10;;;;;;4966481;28;87043;-49
2022/03/12 10:59:19;;;;;;;;;;;-0.90;64.50;;;;;;4967177;28;86173;-50
2022/03/12 11:01:46;;;;;;;;;;;-0.90;64.00;;;;;;4967263;28;87156;-50
2022/03/12 11:04:19;;;;;;;;;;;-1.00;63.80;;;;;;4966099;28;88420;-51
2022/03/12 11:06:46;;;;;;;;;;;-0.90;64.00;;;;;;4965969;28;87838;-50
2022/03/12 11:09:18;;;;;;;;;;;-0.90;63.70;;;;;;4966282;28;88827;-49
2022/03/12 11:11:44;;;;;;;;;;;-0.90;64.00;;;;;;4966152;28;87613;-49
2022/03/12 11:14:15;;;;;;;;;;;-0.80;63.90;;;;;;4968854;28;86870;-53
2022/03/12 11:16:40;;;;;;;;;;;-0.80;63.70;;;;;;4965913;28;88708;-51
2022/03/12 11:19:07;;;;;;;;;;;-0.80;63.90;;;;;;4966451;28;86872;-49
2022/03/12 11:21:37;;;;;;;;;;;-0.80;64.30;;;;;;4966274;28;87035;-49
2022/03/12 11:24:05;;;;;;;;;;;-0.80;64.30;;;;;;4965384;28;87793;-51
2022/03/12 11:26:31;;;;;;;;;;;-0.80;64.20;;;;;;4966149;28;86938;-49
2022/03/12 11:28:57;;;;;;;;;;;-0.80;64.10;;;;;;4966391;28;86827;-49
2022/03/12 11:31:38;;;;;;;;;;;-0.80;64.20;;;;;;4965121;28;89815;-51
2022/03/12 11:34:19;;;;;;;;;;;-0.70;64.10;;;;;;4969318;28;86828;-50
2022/03/12 11:36:46;;;;;;;;;;;-0.70;63.80;;;;;;4965527;28;87551;-51
2022/03/12 11:39:41;;;;;;;;;;;-0.70;64.20;;;;;;4966054;28;87152;-49
2022/03/12 11:42:15;;;;;;;;;;;-0.70;63.90;;;;;;4944071;28;87123;-49
2022/03/12 11:44:45;;;;;;;;;;;-0.70;63.90;;;;;;4965948;28;87662;-49
2022/03/12 11:47:12;;;;;;;;;;;-0.70;64.10;;;;;;4965758;28;86956;-49
2022/03/12 11:49:38;;;;;;;;;;;-0.70;64.10;;;;;;4966491;28;87797;-50
2022/03/12 11:52:04;;;;;;;;;;;-0.70;64.20;;;;;;4965912;28;87534;-49
2022/03/12 11:54:30;;;;;;;;;;;-0.70;64.10;;;;;;4965667;28;86942;-49
2022/03/12 11:56:58;;;;;;;;;;;-0.70;64.00;;;;;;4967981;28;88142;-50
2022/03/12 11:59:24;;;;;;;;;;;-0.60;63.70;;;;;;4965818;28;86890;-50
2022/03/12 12:02:01;;;;;;;;;;;-0.70;63.80;;;;;;4965729;28;88126;-49
2022/03/12 12:04:32;;;;;;;;;;;-0.60;63.80;;;;;;4965339;28;88540;-50
2022/03/12 12:07:01;;;;;;;;;;;-0.60;63.80;;;;;;4965586;28;86870;-49
2022/03/12 12:09:28;;;;;;;;;;;-0.60;63.60;;;;;;4965552;28;87868;-48
2022/03/12 12:11:54;;;;;;;;;;;-0.60;63.30;;;;;;4965454;28;86972;-49
2022/03/12 12:14:20;;;;;;;;;;;-0.60;63.50;;;;;;4966159;28;86849;-50
2022/03/12 12:16:48;;;;;;;;;;;-0.60;63.80;;;;;;4965703;28;87202;-49
2022/03/12 12:19:14;;;;;;;;;;;-0.60;63.70;;;;;;4968115;28;87555;-49
2022/03/12 12:21:39;;;;;;;;;;;-0.60;63.70;;;;;;4964902;28;87865;-48
2022/03/12 12:24:24;;;;;;;;;;;-0.60;63.50;;;;;;4964995;28;88061;-49
2022/03/12 12:26:56;;;;;;;;;;;-0.50;63.50;;;;;;4965796;28;86853;-49
2022/03/12 12:29:37;;;;;;;;;;;-0.50;63.30;;;;;;4965821;28;87186;-48
2022/03/12 12:32:03;;;;;;;;;;;-0.50;63.50;;;;;;4964947;28;89011;-48
2022/03/12 12:34:29;;;;;;;;;;;-0.50;63.30;;;;;;4965344;28;86978;-49
2022/03/12 12:37:02;;;;;;;;;;;-0.50;63.60;;;;;;4968545;28;87060;-49
2022/03/12 12:39:28;;;;;;;;;;;-0.40;63.10;;;;;;4968990;28;87777;-49
2022/03/12 12:41:54;;;;;;;;;;;-0.40;62.40;;;;;;4971481;28;86879;-48
2022/03/12 12:44:39;;;;;;;;;;;-0.40;62.50;;;;;;4968216;28;88414;-48
2022/03/12 12:47:05;;;;;;;;;;;-0.40;62.90;;;;;;4966689;28;88142;-49
2022/03/12 12:49:35;;;;;;;;;;;-0.40;62.60;;;;;;4968710;28;86839;-51
2022/03/12 12:52:01;;;;;;;;;;;-0.40;62.80;;;;;;4968315;28;88085;-49
2022/03/12 12:54:49;;;;;;;;;;;-0.40;62.80;;;;;;4968558;28;86859;-48
2022/03/12 12:57:15;;;;;;;;;;;-0.30;63.00;;;;;;4955378;28;86816;-49
2022/03/12 12:59:48;;;;;;;;;;;-0.30;62.90;;;;;;4967980;28;88532;-48
2022/03/12 13:02:13;;;;;;;;;;;-0.30;63.10;;;;;;4968203;28;86897;-49
2022/03/12 13:04:43;;;;;;;;;;;-0.30;63.40;;;;;;4971226;28;87291;-50
2022/03/12 13:07:19;;;;;;;;;;;-0.20;63.40;;;;;;4968344;28;86849;-49
2022/03/12 13:09:47;;;;;;;;;;;-0.20;63.40;;;;;;4968316;28;87265;-50
2022/03/12 13:12:15;;;;;;;;;;;-0.20;63.50;;;;;;4967001;28;89682;-49
2022/03/12 13:14:44;;;;;;;;;;;-0.20;63.70;;;;;;4968396;28;86937;-49
2022/03/12 13:17:24;;;;;;;;;;;-0.20;63.30;;;;;;4968081;28;87907;-48
2022/03/12 13:19:50;;;;;;;;;;;-0.20;64.10;;;;;;4967641;28;88577;-48
2022/03/12 13:22:18;;;;;;;;;;;-0.20;63.50;;;;;;4967429;28;87040;-50
2022/03/12 13:24:46;;;;;;;;;;;-0.20;63.80;;;;;;4970341;28;87952;-49
2022/03/12 13:27:19;;;;;;;;;;;-0.20;63.70;;;;;;4968053;28;86988;-49
2022/03/12 13:29:45;;;;;;;;;;;-0.10;64.00;;;;;;4968460;28;86906;-49
2022/03/12 13:32:23;;;;;;;;;;;-0.10;63.60;;;;;;4967456;28;88036;-48
2022/03/12 13:34:49;;;;;;;;;;;-0.10;64.00;;;;;;4967724;28;86880;-48
2022/03/12 13:37:16;;;;;;;;;;;-0.10;63.70;;;;;;4967097;28;88172;-49
2022/03/12 13:39:42;;;;;;;;;;;-0.10;63.50;;;;;;4967463;28;88547;-50
2022/03/12 13:42:09;;;;;;;;;;;0.00;63.60;;;;;;4967642;28;86860;-48
2022/03/12 13:44:35;;;;;;;;;;;-0.10;63.60;;;;;;4967980;28;86825;-50
2022/03/12 13:47:01;;;;;;;;;;;-0.10;63.50;;;;;;4968953;28;88667;-49
2022/03/12 13:49:26;;;;;;;;;;;0.00;63.80;;;;;;4967904;28;87051;-50
2022/03/12 13:51:53;;;;;;;;;;;0.00;63.70;;;;;;4967512;28;86895;-49
2022/03/12 13:54:20;;;;;;;;;;;0.00;63.40;;;;;;4967853;28;86121;-49
2022/03/12 13:56:47;;;;;;;;;;;0.00;63.40;;;;;;4967316;28;87211;-50
2022/03/12 13:59:16;;;;;;;;;;;0.00;63.70;;;;;;4966969;28;88441;-49
2022/03/12 14:01:43;;;;;;;;;;;0.00;63.30;;;;;;4966649;28;88229;-49
2022/03/12 14:04:17;;;;;;;;;;;0.00;63.30;;;;;;4967529;28;88928;-50
2022/03/12 14:06:44;;;;;;;;;;;0.10;63.80;;;;;;4966817;28;88136;-50
2022/03/12 14:09:11;;;;;;;;;;;0.10;63.80;;;;;;4970529;28;87058;-50
2022/03/12 14:11:41;;;;;;;;;;;0.10;63.80;;;;;;4966926;28;87552;-48
2022/03/12 14:14:09;;;;;;;;;;;0.10;63.90;;;;;;4967326;28;87244;-50
2022/03/12 14:16:38;;;;;;;;;;;0.10;63.70;;;;;;4967476;28;86912;-48
2022/03/12 14:19:05;;;;;;;;;;;0.10;63.70;;;;;;4967384;28;86907;-49
2022/03/12 14:21:36;;;;;;;;;;;0.20;63.80;;;;;;4967399;28;87249;-50